Archival Weather

Chicago O'Hare International

Chicago, Illinois (KORD)

Report from: Sunday, December 4, 2022 3:51 AM CST
Current time: Monday, June 24, 2024 4:59 AM CDT

Current weather – Weather history – Daily summaries
Weather forecast

Temperature-6.7°C (19.9°F)
Wind chill-12.2°C (10.1°F)
Dew point-12.8°C (9.0°F)
Winds 7 kts (3.6 m/s, 8.1 mph) Southwest (220°)
Visibility10 mi. (16.1 km)
Clouds Sky clear
Altimeter30.28 in.Hg (1025 mB)
Relative humidity62 %
Density altitude-3,102 ft. (-945 m)
Sea-level pressure102.6 kPa (1026 mB, 30.31 in.Hg)
Remarks System requires maintenance
Automated weather observing station with precipitation discriminator
Flight conditions Visual Meteorological Conditions
Raw dataKORD 040951Z 22007KT 10SM CLR M07/M13 A3028 RMK AO2 SLP264 T10671128 $
An error has occurred. This application may no longer respond until reloaded. Reload 🗙